createdAt,value
2018-07-30T00:01:04.744Z,4.80
2018-07-30T00:03:33.468Z,4.40
2018-07-30T00:06:02.158Z,4.63
2018-07-30T00:08:30.814Z,4.87
2018-07-30T00:10:59.854Z,4.70
2018-07-30T00:13:28.558Z,4.50
2018-07-30T00:15:57.414Z,4.80
2018-07-30T00:18:26.440Z,4.83
2018-07-30T00:20:55.224Z,4.80
2018-07-30T00:23:23.982Z,5.00
2018-07-30T00:25:52.642Z,4.67
2018-07-30T00:28:21.500Z,4.73
2018-07-30T00:30:50.156Z,4.60
2018-07-30T00:33:18.810Z,4.77
2018-07-30T00:35:47.456Z,5.00
2018-07-30T00:38:16.112Z,5.00
2018-07-30T00:40:44.816Z,4.60
2018-07-30T00:43:13.468Z,4.97
2018-07-30T00:45:42.123Z,4.53
2018-07-30T00:48:10.748Z,4.67
2018-07-30T00:50:39.583Z,4.63
2018-07-30T00:53:08.413Z,4.73
2018-07-30T00:55:37.032Z,5.23
2018-07-30T00:58:06.165Z,5.03
2018-07-30T01:00:34.885Z,5.00
2018-07-30T01:03:04.455Z,4.90
2018-07-30T01:05:33.193Z,5.13
2018-07-30T01:08:02.218Z,4.83
2018-07-30T01:10:31.294Z,5.10
2018-07-30T01:12:59.928Z,5.07
2018-07-30T01:15:28.557Z,5.23
2018-07-30T01:17:57.384Z,5.40
2018-07-30T01:20:26.463Z,5.15
2018-07-30T01:22:55.325Z,5.10
2018-07-30T01:25:24.214Z,4.90
2018-07-30T01:27:53.635Z,4.97
2018-07-30T01:30:22.449Z,5.07
2018-07-30T01:32:51.104Z,4.93
2018-07-30T01:35:20.012Z,5.10
2018-07-30T01:37:48.668Z,5.43
2018-07-30T01:40:17.819Z,5.22
2018-07-30T01:42:46.452Z,5.23
2018-07-30T01:45:15.070Z,5.43
2018-07-30T01:47:43.998Z,5.10
2018-07-30T01:50:12.604Z,5.60
2018-07-30T01:52:41.564Z,5.30
2018-07-30T01:55:10.807Z,5.17
2018-07-30T01:57:40.414Z,4.97
2018-07-30T02:00:09.372Z,5.40
2018-07-30T02:02:43.039Z,5.10
2018-07-30T02:05:12.317Z,5.47
2018-07-30T02:07:42.524Z,5.80
2018-07-30T02:10:12.304Z,5.65
2018-07-30T02:12:41.346Z,5.70
2018-07-30T02:15:10.105Z,5.60
2018-07-30T02:17:39.066Z,5.30
2018-07-30T02:20:08.334Z,5.45
2018-07-30T02:22:37.328Z,5.12
2018-07-30T02:25:06.936Z,5.20
2018-07-30T02:27:36.236Z,5.47
2018-07-30T02:30:06.673Z,5.47
2018-07-30T02:32:35.608Z,5.30
2018-07-30T02:35:05.639Z,5.45
2018-07-30T02:37:34.689Z,5.80
2018-07-30T02:40:04.851Z,5.50
2018-07-30T02:42:33.761Z,5.58
2018-07-30T02:45:03.057Z,5.15
2018-07-30T02:47:32.127Z,5.33
2018-07-30T02:50:01.056Z,5.35
2018-07-30T02:52:30.540Z,5.00
2018-07-30T02:54:59.568Z,5.17
2018-07-30T02:57:28.584Z,5.40
2018-07-30T02:59:57.642Z,5.40
2018-07-30T03:02:26.592Z,5.17
2018-07-30T03:04:55.532Z,5.12
2018-07-30T03:07:24.484Z,5.12
2018-07-30T03:09:53.581Z,5.12
2018-07-30T03:12:22.528Z,5.22
2018-07-30T03:14:52.275Z,5.22
2018-07-30T03:17:21.192Z,5.30
2018-07-30T03:19:50.125Z,5.85
2018-07-30T03:22:19.398Z,5.75
2018-07-30T03:24:48.665Z,5.72
2018-07-30T03:27:17.784Z,5.22
2018-07-30T03:29:46.734Z,5.85
2018-07-30T03:32:15.708Z,5.40
2018-07-30T03:34:44.639Z,5.28
2018-07-30T03:37:13.925Z,5.33
2018-07-30T03:39:42.860Z,5.30
2018-07-30T03:42:12.242Z,5.20
2018-07-30T03:44:41.190Z,5.65
2018-07-30T03:47:10.510Z,5.67
2018-07-30T03:49:39.428Z,5.28
2018-07-30T03:52:09.151Z,5.85
2018-07-30T03:54:38.110Z,8.13
2018-07-30T03:57:07.232Z,6.33
2018-07-30T03:59:36.137Z,5.42
2018-07-30T04:02:05.100Z,5.78
2018-07-30T04:04:34.008Z,5.62
2018-07-30T04:07:02.902Z,5.50
2018-07-30T04:09:31.973Z,7.30
2018-07-30T04:12:00.849Z,6.33
2018-07-30T04:14:30.190Z,6.37
2018-07-30T04:16:59.089Z,6.10
2018-07-30T04:19:28.028Z,5.83
2018-07-30T04:21:57.801Z,6.10
2018-07-30T04:24:26.779Z,5.40
2018-07-30T04:26:55.698Z,5.78
2018-07-30T04:29:24.621Z,5.45
2018-07-30T04:31:53.605Z,5.60
2018-07-30T04:34:22.581Z,7.20
2018-07-30T04:36:51.540Z,7.22
2018-07-30T04:39:20.549Z,7.05
2018-07-30T04:41:49.601Z,5.75
2018-07-30T04:44:18.519Z,5.53
2018-07-30T04:46:47.775Z,5.40
2018-07-30T04:49:16.815Z,5.12
2018-07-30T04:51:45.930Z,5.78
2018-07-30T04:54:14.851Z,5.90
2018-07-30T04:56:43.746Z,5.60
2018-07-30T04:59:12.675Z,5.60
2018-07-30T05:01:42.000Z,6.33
2018-07-30T05:04:11.004Z,6.35
2018-07-30T05:06:39.943Z,5.97
2018-07-30T05:09:09.581Z,6.20
2018-07-30T05:11:38.640Z,6.17
2018-07-30T05:14:07.726Z,5.60
2018-07-30T05:16:36.674Z,5.67
2018-07-30T05:19:05.962Z,5.55
2018-07-30T05:21:34.924Z,5.95
2018-07-30T05:24:04.216Z,5.92
2018-07-30T05:26:33.112Z,5.53
2018-07-30T05:29:02.459Z,5.45
2018-07-30T05:31:31.501Z,6.58
2018-07-30T05:34:00.654Z,6.05
2018-07-30T05:36:29.536Z,5.30
2018-07-30T05:38:58.498Z,6.03
2018-07-30T05:41:27.847Z,5.80
2018-07-30T05:43:56.527Z,5.73
2018-07-30T05:46:25.510Z,5.42
2018-07-30T05:48:54.410Z,5.83
2018-07-30T05:51:23.185Z,5.23
2018-07-30T05:53:52.141Z,5.05
2018-07-30T05:56:21.117Z,6.00
2018-07-30T05:58:50.140Z,5.95
2018-07-30T06:01:19.217Z,5.40
2018-07-30T06:03:47.842Z,5.00
2018-07-30T06:06:16.482Z,5.50
2018-07-30T06:08:45.161Z,4.83
2018-07-30T06:11:13.850Z,4.57
2018-07-30T06:13:43.048Z,4.60
2018-07-30T06:16:11.713Z,4.50
2018-07-30T06:18:40.329Z,6.00
2018-07-30T06:21:09.111Z,5.07
2018-07-30T06:23:37.833Z,4.63
2018-07-30T06:26:06.490Z,4.93
2018-07-30T06:28:35.176Z,4.60
2018-07-30T06:31:04.152Z,4.57
2018-07-30T06:33:32.861Z,5.13
2018-07-30T06:36:01.538Z,5.03
2018-07-30T06:38:30.613Z,4.30
2018-07-30T06:40:59.828Z,5.73
2018-07-30T06:43:29.128Z,4.70
2018-07-30T06:45:57.765Z,5.37
2018-07-30T06:48:26.947Z,5.50
2018-07-30T06:50:55.968Z,4.73
2018-07-30T06:53:24.664Z,4.47
2018-07-30T06:55:53.466Z,4.33
2018-07-30T06:58:22.228Z,4.47
2018-07-30T07:00:50.892Z,4.20
2018-07-30T07:03:20.140Z,4.13
2018-07-30T07:05:48.928Z,4.30
2018-07-30T07:08:17.567Z,4.33
2018-07-30T07:10:46.279Z,4.57
2018-07-30T07:13:15.504Z,4.60
2018-07-30T07:15:44.135Z,4.43
2018-07-30T07:18:13.004Z,4.40
2018-07-30T07:20:42.205Z,4.50
2018-07-30T07:23:10.981Z,4.40
2018-07-30T07:25:40.069Z,5.00
2018-07-30T07:28:08.871Z,3.90
2018-07-30T07:30:37.524Z,4.90
2018-07-30T07:33:06.307Z,4.63
2018-07-30T07:35:34.949Z,4.43
2018-07-30T07:38:03.653Z,4.07
2018-07-30T07:40:32.287Z,4.30
2018-07-30T07:43:01.148Z,4.47
2018-07-30T07:45:29.792Z,4.33
2018-07-30T07:47:58.427Z,4.10
2018-07-30T07:50:27.233Z,4.80
2018-07-30T07:52:56.009Z,4.70
2018-07-30T07:55:24.697Z,4.60
2018-07-30T07:57:53.387Z,5.13
2018-07-30T08:00:22.256Z,4.60
2018-07-30T08:02:50.857Z,4.30
2018-07-30T08:05:19.681Z,4.50
2018-07-30T08:07:48.449Z,4.60
2018-07-30T08:10:17.545Z,4.47
2018-07-30T08:12:46.215Z,4.50
2018-07-30T08:15:14.862Z,5.93
2018-07-30T08:17:43.919Z,4.60
2018-07-30T08:20:13.015Z,4.43
2018-07-30T08:22:41.998Z,4.13
2018-07-30T08:25:12.468Z,4.83
2018-07-30T08:27:42.123Z,3.93
2018-07-30T08:30:10.927Z,4.33
2018-07-30T08:32:40.031Z,4.57
2018-07-30T08:35:08.733Z,4.60
2018-07-30T08:37:37.580Z,4.33
2018-07-30T08:40:07.463Z,5.73
2018-07-30T08:42:36.077Z,4.63
2018-07-30T08:45:06.043Z,5.37
2018-07-30T08:47:35.013Z,4.50
2018-07-30T08:50:04.024Z,4.70
2018-07-30T08:52:32.791Z,4.73
2018-07-30T08:55:01.484Z,4.07
2018-07-30T08:57:30.533Z,4.53
2018-07-30T08:59:59.184Z,4.27
2018-07-30T09:02:27.832Z,5.00
2018-07-30T09:36:45.750Z,5.00
2018-07-30T09:39:14.539Z,5.37
2018-07-30T09:41:43.338Z,4.70
2018-07-30T09:44:12.023Z,5.00
2018-07-30T09:46:40.682Z,5.40
2018-07-30T09:49:09.726Z,5.70
2018-07-30T09:51:38.452Z,4.67
2018-07-30T09:54:07.152Z,5.80
2018-07-30T09:56:35.794Z,4.60
2018-07-30T09:59:04.514Z,5.07
2018-07-30T10:01:33.203Z,4.90
2018-07-30T10:04:02.278Z,4.77
2018-07-30T10:06:30.950Z,5.30
2018-07-30T10:08:59.557Z,5.10
2018-07-30T10:11:28.293Z,5.30
2018-07-30T10:13:56.933Z,5.00
2018-07-30T10:16:25.673Z,4.77
2018-07-30T10:18:54.331Z,5.00
2018-07-30T10:21:23.017Z,4.63
2018-07-30T10:23:51.775Z,4.87
2018-07-30T10:26:20.761Z,4.90
2018-07-30T10:28:49.563Z,4.90
2018-07-30T10:31:18.376Z,5.13
2018-07-30T10:33:47.137Z,5.60
2018-07-30T10:36:15.830Z,5.10
2018-07-30T10:38:45.092Z,5.77
2018-07-30T10:41:13.878Z,4.90
2018-07-30T10:43:42.506Z,4.90
2018-07-30T10:46:11.569Z,4.97
2018-07-30T10:48:40.475Z,5.10
2018-07-30T10:51:09.131Z,5.10
2018-07-30T10:53:37.795Z,4.97
2018-07-30T10:56:06.446Z,5.37
2018-07-30T10:58:35.592Z,4.70
2018-07-30T11:01:04.496Z,4.77
2018-07-30T11:03:33.399Z,4.93
2018-07-30T11:06:02.217Z,4.97
2018-07-30T11:08:30.902Z,5.23
2018-07-30T11:10:59.612Z,4.80
2018-07-30T11:13:28.346Z,5.10
2018-07-30T11:15:57.242Z,5.23
2018-07-30T11:18:25.950Z,5.00
2018-07-30T11:20:54.751Z,5.37
2018-07-30T11:23:23.594Z,5.43
2018-07-30T11:25:52.436Z,5.40
2018-07-30T11:28:21.257Z,5.33
2018-07-30T11:30:50.380Z,4.60
2018-07-30T11:33:19.716Z,5.00
2018-07-30T11:35:48.417Z,5.37
2018-07-30T11:38:17.116Z,4.97
2018-07-30T11:40:45.903Z,5.40
2018-07-30T11:43:14.712Z,4.97
2018-07-30T11:45:43.405Z,5.33
2018-07-30T11:48:12.029Z,5.10
2018-07-30T11:50:41.077Z,5.30
2018-07-30T11:53:09.713Z,5.13
2018-07-30T11:55:38.553Z,5.43
2018-07-30T11:58:07.250Z,5.03
2018-07-30T12:00:35.935Z,5.30
2018-07-30T12:03:04.707Z,7.10
2018-07-30T12:05:33.349Z,5.50
2018-07-30T12:08:02.048Z,5.10
2018-07-30T12:10:30.881Z,5.13
2018-07-30T12:12:59.767Z,5.30
2018-07-30T12:15:28.469Z,5.50
2018-07-30T12:17:57.471Z,4.77
2018-07-30T12:20:26.232Z,4.50
2018-07-30T12:22:54.892Z,5.23
2018-07-30T12:25:23.509Z,5.33
2018-07-30T12:27:52.150Z,5.97
2018-07-30T12:30:21.290Z,5.30
2018-07-30T12:32:50.112Z,6.33
2018-07-30T12:35:18.808Z,5.60
2018-07-30T12:37:47.554Z,5.50
2018-07-30T12:40:16.360Z,5.23
2018-07-30T12:42:45.024Z,5.63
2018-07-30T12:45:13.739Z,4.97
2018-07-30T12:47:42.422Z,5.40
2018-07-30T12:50:11.064Z,5.57
2018-07-30T12:52:39.738Z,6.20
2018-07-30T12:55:08.424Z,5.30
2018-07-30T12:57:37.052Z,5.40
2018-07-30T13:00:05.838Z,5.17
2018-07-30T13:02:34.615Z,5.00
2018-07-30T13:05:03.374Z,5.33
2018-07-30T13:07:32.092Z,5.60
2018-07-30T13:10:01.127Z,5.80
2018-07-30T13:12:29.825Z,5.03
2018-07-30T13:14:58.489Z,5.27
2018-07-30T13:17:27.374Z,5.20
2018-07-30T13:19:56.213Z,5.43
2018-07-30T13:22:25.310Z,5.30
2018-07-30T13:24:53.958Z,5.27
2018-07-30T13:27:22.716Z,5.20
2018-07-30T13:29:51.375Z,5.03
2018-07-30T13:32:19.750Z,4.97
2018-07-30T13:34:48.486Z,4.87
2018-07-30T13:37:17.263Z,4.50
2018-07-30T13:39:46.126Z,4.70
2018-07-30T13:42:15.226Z,5.20
2018-07-30T13:44:43.990Z,4.80
2018-07-30T13:47:12.635Z,5.20
2018-07-30T13:49:41.293Z,5.30
2018-07-30T13:52:09.935Z,5.17
2018-07-30T13:54:39.001Z,4.70
2018-07-30T13:57:07.947Z,5.10
2018-07-30T13:59:36.815Z,4.80
2018-07-30T14:02:05.688Z,4.90
2018-07-30T14:04:34.337Z,5.10
2018-07-30T14:07:03.029Z,4.87
2018-07-30T14:09:31.751Z,4.83
2018-07-30T14:12:00.421Z,5.00
2018-07-30T14:14:29.231Z,4.70
2018-07-30T14:16:57.881Z,5.00
2018-07-30T14:19:26.605Z,4.37
2018-07-30T14:21:55.353Z,4.63
2018-07-30T14:24:24.031Z,4.70
2018-07-30T14:26:52.683Z,4.53
2018-07-30T14:29:21.388Z,4.73
2018-07-30T14:31:50.337Z,4.90
2018-07-30T14:34:18.967Z,4.37
2018-07-30T14:36:47.758Z,4.53
2018-07-30T14:39:16.442Z,4.63
2018-07-30T14:41:45.172Z,4.30
2018-07-30T14:44:13.805Z,4.20
2018-07-30T14:46:42.469Z,4.50
2018-07-30T14:49:11.155Z,4.43
2018-07-30T14:51:40.241Z,4.40
2018-07-30T14:54:09.058Z,4.43
2018-07-30T14:56:38.134Z,4.73
2018-07-30T14:59:06.838Z,4.30
2018-07-30T15:01:35.722Z,4.47
2018-07-30T15:04:04.424Z,4.00
2018-07-30T15:06:33.082Z,4.37
2018-07-30T15:09:01.962Z,4.57
2018-07-30T15:11:30.688Z,4.20
2018-07-30T15:13:59.389Z,4.10
2018-07-30T15:16:28.026Z,4.30
2018-07-30T15:18:56.700Z,4.40
2018-07-30T15:21:25.744Z,4.13
2018-07-30T15:23:54.407Z,4.17
2018-07-30T15:26:23.074Z,4.33
2018-07-30T15:28:51.710Z,4.30
2018-07-30T15:31:20.370Z,4.23
2018-07-30T15:33:49.060Z,4.50
2018-07-30T15:36:18.188Z,4.40
2018-07-30T15:38:46.898Z,4.33
2018-07-30T15:41:15.562Z,4.63
2018-07-30T15:43:44.193Z,4.37
2018-07-30T15:46:12.871Z,4.27
2018-07-30T15:48:41.708Z,4.00
2018-07-30T15:51:10.542Z,4.60
2018-07-30T15:53:39.184Z,4.30
2018-07-30T15:56:08.179Z,4.13
2018-07-30T15:58:37.319Z,4.30
2018-07-30T16:01:06.068Z,3.97
2018-07-30T16:03:34.849Z,3.83
2018-07-30T16:06:03.623Z,4.20
2018-07-30T16:08:32.631Z,4.30
2018-07-30T16:11:01.299Z,3.70
2018-07-30T16:13:29.958Z,4.17
2018-07-30T16:15:58.617Z,4.27
2018-07-30T16:18:27.271Z,3.93
2018-07-30T16:20:56.029Z,4.60
2018-07-30T16:23:24.928Z,4.53
2018-07-30T16:25:53.721Z,4.73
2018-07-30T16:28:22.459Z,9.10
2018-07-30T16:30:51.172Z,4.87
2018-07-30T16:33:20.049Z,4.13
2018-07-30T16:35:49.107Z,4.40
2018-07-30T16:38:18.093Z,5.90
2018-07-30T16:40:46.779Z,4.83
2018-07-30T16:43:15.509Z,4.80
2018-07-30T16:45:44.587Z,3.60
2018-07-30T16:48:13.218Z,4.27
2018-07-30T16:50:41.983Z,4.57
2018-07-30T16:53:10.683Z,4.20
2018-07-30T16:55:39.333Z,3.90
2018-07-30T16:58:08.005Z,6.37
2018-07-30T17:00:37.012Z,3.97
2018-07-30T17:03:05.677Z,5.10
2018-07-30T17:05:36.031Z,4.27
2018-07-30T17:08:05.078Z,6.57
2018-07-30T17:10:33.765Z,4.70
2018-07-30T17:13:02.502Z,4.30
2018-07-30T17:15:31.122Z,3.93
2018-07-30T17:17:59.773Z,4.10
2018-07-30T17:20:28.481Z,4.23
2018-07-30T17:22:57.246Z,4.77
2018-07-30T17:25:26.005Z,4.57
2018-07-30T17:27:55.075Z,5.83
2018-07-30T17:30:23.736Z,4.17
2018-07-30T17:32:52.810Z,5.27
2018-07-30T17:35:21.471Z,5.53
2018-07-30T17:37:50.257Z,4.73
2018-07-30T17:40:18.918Z,5.13
2018-07-30T17:42:47.957Z,4.33
2018-07-30T17:45:16.668Z,4.63
2018-07-30T17:47:45.994Z,7.00
2018-07-30T17:50:14.702Z,6.07
2018-07-30T17:52:43.402Z,6.10
2018-07-30T17:55:12.138Z,5.00
2018-07-30T17:57:40.853Z,7.17
2018-07-30T18:00:10.518Z,8.60
2018-07-30T18:02:39.964Z,9.13
2018-07-30T18:05:09.390Z,12.50
2018-07-30T18:07:38.025Z,8.20
2018-07-30T18:10:07.274Z,6.17
2018-07-30T18:12:35.970Z,6.87
2018-07-30T18:15:04.675Z,5.53
2018-07-30T18:17:33.548Z,5.77
2018-07-30T18:20:02.289Z,5.47
2018-07-30T18:22:31.523Z,5.30
2018-07-30T18:25:00.287Z,7.80
2018-07-30T18:27:29.134Z,5.97
2018-07-30T18:29:58.033Z,11.83
2018-07-30T18:32:26.937Z,7.60
2018-07-30T18:34:55.581Z,5.60
2018-07-30T18:37:24.245Z,5.57
2018-07-30T18:39:52.903Z,5.43
2018-07-30T18:42:21.585Z,5.80
2018-07-30T18:44:50.295Z,5.57
2018-07-30T18:47:19.151Z,6.67
2018-07-30T18:49:47.944Z,6.70
2018-07-30T18:52:16.609Z,7.03
2018-07-30T18:54:45.400Z,6.97
2018-07-30T18:57:14.063Z,5.57
2018-07-30T18:59:43.085Z,6.23
2018-07-30T19:02:11.724Z,6.23
2018-07-30T19:04:40.330Z,6.10
2018-07-30T19:07:09.162Z,6.20
2018-07-30T19:09:37.810Z,5.53
2018-07-30T19:12:06.899Z,5.80
2018-07-30T19:14:35.580Z,5.77
2018-07-30T19:17:04.308Z,6.70
2018-07-30T19:19:32.932Z,6.87
2018-07-30T19:22:01.632Z,6.13
2018-07-30T19:24:30.339Z,6.20
2018-07-30T19:26:58.974Z,6.33
2018-07-30T19:29:27.644Z,6.50
2018-07-30T19:31:56.286Z,7.03
2018-07-30T19:34:24.876Z,6.53
2018-07-30T19:36:53.745Z,6.10
2018-07-30T19:39:22.503Z,6.10
2018-07-30T19:41:51.499Z,6.40
2018-07-30T19:44:20.319Z,6.13
2018-07-30T19:46:49.139Z,5.90
2018-07-30T19:49:17.760Z,6.23
2018-07-30T19:51:46.421Z,6.43
2018-07-30T19:54:15.068Z,6.30
2018-07-30T19:56:43.754Z,6.73
2018-07-30T19:59:12.385Z,6.40
2018-07-30T20:01:41.057Z,6.33
2018-07-30T20:04:09.722Z,6.43
2018-07-30T20:06:38.442Z,6.67
2018-07-30T20:09:09.245Z,6.50
2018-07-30T20:11:37.899Z,6.03
2018-07-30T20:14:06.561Z,6.37
2018-07-30T20:16:35.761Z,6.00
2018-07-30T20:19:05.164Z,6.20
2018-07-30T20:21:33.835Z,6.00
2018-07-30T20:24:03.039Z,6.07
2018-07-30T20:26:31.677Z,6.23
2018-07-30T20:29:00.461Z,6.00
2018-07-30T20:31:29.089Z,6.20
2018-07-30T20:33:58.685Z,6.13
2018-07-30T20:36:27.657Z,6.53
2018-07-30T20:38:56.698Z,6.73
2018-07-30T20:41:25.411Z,6.57
2018-07-30T20:43:54.161Z,6.00
2018-07-30T20:46:22.955Z,6.30
2018-07-30T20:48:52.147Z,6.43
2018-07-30T20:51:20.940Z,6.40
2018-07-30T20:53:49.555Z,6.57
2018-07-30T20:56:18.273Z,6.87
2018-07-30T20:58:47.117Z,6.10
2018-07-30T21:01:15.775Z,6.47
2018-07-30T21:03:44.497Z,6.50
2018-07-30T21:06:13.240Z,6.10
2018-07-30T21:08:41.971Z,6.43
2018-07-30T21:11:10.664Z,6.30
2018-07-30T21:13:39.271Z,6.10
2018-07-30T21:16:07.976Z,6.40
2018-07-30T21:18:37.087Z,6.27
2018-07-30T21:21:05.743Z,6.07
2018-07-30T21:23:34.615Z,6.40
2018-07-30T21:26:04.166Z,6.50
2018-07-30T21:28:32.864Z,6.07
2018-07-30T21:31:01.554Z,6.43
2018-07-30T21:33:30.195Z,6.43
2018-07-30T21:35:58.850Z,6.23
2018-07-30T21:38:27.623Z,5.97
2018-07-30T21:40:56.256Z,5.97
2018-07-30T21:43:24.914Z,6.10
2018-07-30T21:45:53.555Z,5.97
2018-07-30T21:48:22.252Z,6.20
2018-07-30T21:50:50.935Z,5.83
2018-07-30T21:53:19.571Z,6.00
2018-07-30T21:55:48.348Z,5.83
2018-07-30T21:58:16.976Z,6.17
2018-07-30T22:00:51.283Z,5.93
2018-07-30T22:03:19.954Z,6.20
2018-07-30T22:05:53.207Z,6.07
2018-07-30T22:08:21.847Z,6.13
2018-07-30T22:10:50.527Z,6.00
2018-07-30T22:13:19.377Z,6.10
2018-07-30T22:15:48.843Z,6.03
2018-07-30T22:18:18.227Z,6.03
2018-07-30T22:20:46.883Z,5.93
2018-07-30T22:23:15.807Z,5.90
2018-07-30T22:25:44.485Z,5.83
2018-07-30T22:28:13.185Z,6.23
2018-07-30T22:30:41.804Z,6.00
2018-07-30T22:33:10.813Z,6.03
2018-07-30T22:35:39.811Z,6.07
2018-07-30T22:38:08.907Z,6.07
2018-07-30T22:40:37.529Z,6.00
2018-07-30T22:43:07.869Z,5.80
2018-07-30T22:45:36.521Z,6.30
2018-07-30T22:48:05.449Z,5.77
2018-07-30T22:50:34.211Z,6.70
2018-07-30T22:53:02.845Z,6.30
2018-07-30T22:55:31.591Z,6.20
2018-07-30T22:58:00.223Z,6.07
2018-07-30T23:00:28.880Z,6.50
2018-07-30T23:02:57.539Z,6.70
2018-07-30T23:05:26.297Z,6.23
2018-07-30T23:07:54.913Z,5.97
2018-07-30T23:10:23.557Z,5.93
2018-07-30T23:12:52.208Z,6.43
2018-07-30T23:15:20.929Z,6.37
2018-07-30T23:17:50.069Z,6.40
2018-07-30T23:20:18.826Z,6.63
2018-07-30T23:22:47.489Z,6.13
2018-07-30T23:25:16.953Z,6.30
2018-07-30T23:27:45.593Z,6.53
2018-07-30T23:30:14.534Z,6.97
2018-07-30T23:32:43.517Z,6.50
2018-07-30T23:35:12.187Z,6.70
2018-07-30T23:37:40.813Z,6.43
2018-07-30T23:40:09.482Z,6.27
2018-07-30T23:42:38.116Z,6.80
2018-07-30T23:45:07.082Z,6.50
2018-07-30T23:47:35.702Z,6.40
2018-07-30T23:50:04.860Z,6.30
2018-07-30T23:52:33.480Z,6.70
2018-07-30T23:55:02.512Z,7.28
2018-07-30T23:57:31.606Z,6.60
